Time;durP1;ratioP1;P1;durP2;ratioP2;P2;SDS_P1;SDS_P2;PMS_P1;PMS_P2;Temp;Humidity;BMP_temperature;BMP_pressure;BME280_temperature;BME280_humidity;BME280_pressure;Samples;Min_cycle;Max_cycle;Signal;HPM_P1;HPM_P2
2023/12/26 00:01:24;;;;;;;0.50;0.50;;;;;;;;;;5100495;28;20107;-78
2023/12/26 00:03:49;;;;;;;0.63;0.30;;;;;;;;;;5101060;28;20280;-78
2023/12/26 00:06:21;;;;;;;0.40;0.40;;;;;;;;;;5101832;28;20588;-79
2023/12/26 00:08:47;;;;;;;3.72;0.40;;;;;;;;;;5101761;28;20083;-79
2023/12/26 00:11:13;;;;;;;1.27;0.45;;;;;;;;;;5101654;28;20483;-79
2023/12/26 00:13:38;;;;;;;0.70;0.50;;;;;;;;;;5101667;28;20028;-78
2023/12/26 00:16:03;;;;;;;0.40;0.40;;;;;;;;;;5102061;28;20028;-78
2023/12/26 00:18:28;;;;;;;0.50;0.40;;;;;;;;;;5100646;28;20318;-79
2023/12/26 00:20:54;;;;;;;0.47;0.40;;;;;;;;;;5100939;28;20099;-77
2023/12/26 00:23:20;;;;;;;0.35;0.35;;;;;;;;;;5100603;28;20699;-79
2023/12/26 00:25:45;;;;;;;1.00;0.30;;;;;;;;;;5100397;28;20035;-79
2023/12/26 00:28:13;;;;;;;0.22;0.22;;;;;;;;;;5101719;28;20508;-79
2023/12/26 00:30:39;;;;;;;0.30;0.30;;;;;;;;;;5100348;28;20024;-77
2023/12/26 00:33:04;;;;;;;0.30;0.30;;;;;;;;;;5100548;28;20024;-80
2023/12/26 00:35:29;;;;;;;0.30;0.20;;;;;;;;;;5100756;28;20557;-80
2023/12/26 00:37:54;;;;;;;0.30;0.30;;;;;;;;;;5100272;28;20027;-80
2023/12/26 00:40:20;;;;;;;0.27;0.27;;;;;;;;;;5100375;28;20256;-78
2023/12/26 00:42:46;;;;;;;0.20;0.20;;;;;;;;;;5100136;28;20308;-79
2023/12/26 00:45:13;;;;;;;0.30;0.30;;;;;;;;;;5099726;28;20481;-79
2023/12/26 00:47:38;;;;;;;0.35;0.30;;;;;;;;;;5100000;28;20024;-79
2023/12/26 00:50:04;;;;;;;0.68;0.30;;;;;;;;;;5100671;28;20376;-78
2023/12/26 00:52:31;;;;;;;0.20;0.20;;;;;;;;;;5101101;28;20042;-79
2023/12/26 00:54:57;;;;;;;0.77;0.25;;;;;;;;;;5099329;28;20075;-79
2023/12/26 00:57:22;;;;;;;0.30;0.30;;;;;;;;;;5101154;28;20510;-79
2023/12/26 00:59:47;;;;;;;0.20;0.20;;;;;;;;;;5101619;28;20088;-80
2023/12/26 01:02:12;;;;;;;0.20;0.20;;;;;;;;;;5100007;28;20028;-78
2023/12/26 01:04:38;;;;;;;0.30;0.23;;;;;;;;;;5101150;28;20268;-79
2023/12/26 01:07:05;;;;;;;0.13;0.10;;;;;;;;;;5101459;28;20264;-79
2023/12/26 01:09:30;;;;;;;1.75;0.20;;;;;;;;;;5101282;28;20258;-79
2023/12/26 01:11:56;;;;;;;0.10;0.10;;;;;;;;;;5099730;28;20035;-79
2023/12/26 01:14:21;;;;;;;0.10;0.10;;;;;;;;;;5101587;28;20260;-80
2023/12/26 01:16:46;;;;;;;0.20;0.20;;;;;;;;;;5100758;28;20081;-80
2023/12/26 01:19:12;;;;;;;0.10;0.10;;;;;;;;;;5101322;28;20024;-80
2023/12/26 01:21:38;;;;;;;0.20;0.20;;;;;;;;;;5101555;28;20020;-78
2023/12/26 01:24:04;;;;;;;0.28;0.20;;;;;;;;;;5100869;28;20028;-78
2023/12/26 01:26:30;;;;;;;0.32;0.20;;;;;;;;;;5098808;28;20031;-79
2023/12/26 01:28:56;;;;;;;0.10;0.10;;;;;;;;;;5092616;28;20077;-79
2023/12/26 01:31:21;;;;;;;0.20;0.20;;;;;;;;;;5093198;28;20028;-79
2023/12/26 01:33:46;;;;;;;0.98;0.10;;;;;;;;;;5094750;28;20028;-78
2023/12/26 01:36:12;;;;;;;0.15;0.15;;;;;;;;;;5093155;28;20102;-77
2023/12/26 01:38:37;;;;;;;0.10;0.10;;;;;;;;;;5092790;28;20028;-79
2023/12/26 01:41:02;;;;;;;0.10;0.10;;;;;;;;;;5093656;28;20116;-78
2023/12/26 01:43:28;;;;;;;0.60;0.20;;;;;;;;;;5094326;28;20292;-80
2023/12/26 01:45:58;;;;;;;0.37;0.20;;;;;;;;;;5092143;28;20031;-79
2023/12/26 01:48:24;;;;;;;0.10;0.10;;;;;;;;;;5093209;28;20260;-79
2023/12/26 01:50:49;;;;;;;0.22;0.20;;;;;;;;;;5093283;28;20024;-78
2023/12/26 01:53:15;;;;;;;0.43;0.10;;;;;;;;;;5095121;28;20027;-79
2023/12/26 01:55:40;;;;;;;0.10;0.10;;;;;;;;;;5096140;28;20024;-79
2023/12/26 01:58:07;;;;;;;1.75;0.20;;;;;;;;;;5096499;28;20027;-79
2023/12/26 02:00:32;;;;;;;0.10;0.10;;;;;;;;;;5096627;28;20024;-78
2023/12/26 02:02:57;;;;;;;0.10;0.10;;;;;;;;;;5097678;28;20020;-80
2023/12/26 02:05:23;;;;;;;0.20;0.20;;;;;;;;;;5097911;28;20227;-79
2023/12/26 02:07:48;;;;;;;0.10;0.10;;;;;;;;;;5101401;28;20396;-79
2023/12/26 02:10:13;;;;;;;0.17;0.17;;;;;;;;;;5102648;28;20035;-78
2023/12/26 02:12:39;;;;;;;0.10;0.10;;;;;;;;;;5103242;28;20543;-80
2023/12/26 02:15:04;;;;;;;0.10;0.10;;;;;;;;;;5103454;28;20291;-78
2023/12/26 02:17:30;;;;;;;1.33;0.30;;;;;;;;;;5102466;28;20873;-79
2023/12/26 02:19:56;;;;;;;0.90;0.20;;;;;;;;;;5102800;28;20032;-79
2023/12/26 02:22:21;;;;;;;0.17;0.17;;;;;;;;;;5101066;28;20030;-79
2023/12/26 02:24:47;;;;;;;0.10;0.10;;;;;;;;;;5101929;28;20016;-79
2023/12/26 02:27:18;;;;;;;0.15;0.15;;;;;;;;;;5101709;28;20260;-79
2023/12/26 02:29:44;;;;;;;0.20;0.20;;;;;;;;;;5103769;28;20028;-80
2023/12/26 02:32:10;;;;;;;0.20;0.20;;;;;;;;;;5102875;28;20077;-79
2023/12/26 02:34:36;;;;;;;0.20;0.20;;;;;;;;;;5101264;28;20498;-79
2023/12/26 02:37:01;;;;;;;0.20;0.20;;;;;;;;;;5101601;28;20035;-79
2023/12/26 02:39:27;;;;;;;0.10;0.10;;;;;;;;;;5102253;28;20024;-79
2023/12/26 02:41:52;;;;;;;0.10;0.10;;;;;;;;;;5100128;28;20036;-79
2023/12/26 02:44:17;;;;;;;0.20;0.20;;;;;;;;;;5103051;28;20383;-79
2023/12/26 02:46:42;;;;;;;0.30;0.20;;;;;;;;;;5101224;28;20316;-79
2023/12/26 02:49:08;;;;;;;0.25;0.25;;;;;;;;;;5105282;28;20020;-79
2023/12/26 02:51:33;;;;;;;0.17;0.17;;;;;;;;;;5113484;28;20024;-79
2023/12/26 02:53:58;;;;;;;0.13;0.13;;;;;;;;;;5112744;28;20252;-79
2023/12/26 02:56:23;;;;;;;0.20;0.20;;;;;;;;;;5108807;28;20758;-79
2023/12/26 02:58:48;;;;;;;0.22;0.22;;;;;;;;;;5104747;28;20761;-79
2023/12/26 03:01:14;;;;;;;0.30;0.30;;;;;;;;;;5104743;28;20085;-78
2023/12/26 03:03:39;;;;;;;0.30;0.20;;;;;;;;;;5105384;28;20264;-79
2023/12/26 03:06:07;;;;;;;0.20;0.20;;;;;;;;;;5104311;28;20281;-80
2023/12/26 03:08:32;;;;;;;1.45;0.10;;;;;;;;;;5103681;28;20032;-80
2023/12/26 03:10:57;;;;;;;0.20;0.20;;;;;;;;;;5102938;28;20043;-79
2023/12/26 03:13:23;;;;;;;0.30;0.30;;;;;;;;;;5100107;28;20751;-79
2023/12/26 03:15:48;;;;;;;0.20;0.20;;;;;;;;;;5096717;28;20259;-78
2023/12/26 03:18:13;;;;;;;0.63;0.13;;;;;;;;;;5095889;28;20023;-79
2023/12/26 03:20:38;;;;;;;0.68;0.30;;;;;;;;;;5096636;28;20028;-79
2023/12/26 03:23:04;;;;;;;0.88;0.30;;;;;;;;;;5097341;28;20115;-79
2023/12/26 03:25:29;;;;;;;0.30;0.30;;;;;;;;;;5096762;28;20483;-79
2023/12/26 03:27:54;;;;;;;0.20;0.20;;;;;;;;;;5097134;28;20857;-79
2023/12/26 03:30:19;;;;;;;0.20;0.20;;;;;;;;;;5097082;28;20624;-79
2023/12/26 03:32:45;;;;;;;0.30;0.20;;;;;;;;;;5096815;28;20770;-79
2023/12/26 03:35:10;;;;;;;0.47;0.32;;;;;;;;;;5097654;28;20075;-78
2023/12/26 03:37:35;;;;;;;0.73;0.32;;;;;;;;;;5097036;28;20028;-80
2023/12/26 03:40:00;;;;;;;0.20;0.20;;;;;;;;;;5096246;28;20077;-79
2023/12/26 03:42:26;;;;;;;0.52;0.40;;;;;;;;;;5096907;28;20048;-79
2023/12/26 03:44:51;;;;;;;0.20;0.20;;;;;;;;;;5095520;28;20020;-79
2023/12/26 03:47:16;;;;;;;0.30;0.30;;;;;;;;;;5095774;28;20355;-80
2023/12/26 03:49:41;;;;;;;0.32;0.20;;;;;;;;;;5095125;28;20262;-78
2023/12/26 03:52:07;;;;;;;0.40;0.40;;;;;;;;;;5096202;28;20109;-79
2023/12/26 03:54:32;;;;;;;0.75;0.35;;;;;;;;;;5096463;28;20268;-79
2023/12/26 03:56:57;;;;;;;1.00;0.50;;;;;;;;;;5095168;28;20168;-78
2023/12/26 03:59:22;;;;;;;0.90;0.40;;;;;;;;;;5096089;28;20284;-79
2023/12/26 04:01:47;;;;;;;0.60;0.30;;;;;;;;;;5096663;28;20771;-79
2023/12/26 04:04:13;;;;;;;0.70;0.38;;;;;;;;;;5095171;28;20631;-79
2023/12/26 04:06:38;;;;;;;0.57;0.20;;;;;;;;;;5096813;28;20024;-79
2023/12/26 04:09:04;;;;;;;0.40;0.40;;;;;;;;;;5096147;28;20280;-78
2023/12/26 04:11:30;;;;;;;0.20;0.20;;;;;;;;;;5096461;28;20396;-79
2023/12/26 04:13:56;;;;;;;1.77;0.20;;;;;;;;;;5095595;28;20020;-79
2023/12/26 04:16:21;;;;;;;0.35;0.30;;;;;;;;;;5096369;28;20022;-79
2023/12/26 04:18:46;;;;;;;1.23;0.40;;;;;;;;;;5095072;28;20035;-78
2023/12/26 04:21:11;;;;;;;0.47;0.30;;;;;;;;;;5096821;28;20028;-79
2023/12/26 04:23:37;;;;;;;0.95;0.40;;;;;;;;;;5096738;28;20114;-79
2023/12/26 04:26:02;;;;;;;0.30;0.30;;;;;;;;;;5102455;28;20080;-79
2023/12/26 04:28:27;;;;;;;0.80;0.20;;;;;;;;;;5100750;28;20743;-79
2023/12/26 04:30:52;;;;;;;0.40;0.30;;;;;;;;;;5101118;28;20268;-80
2023/12/26 04:33:17;;;;;;;0.73;0.40;;;;;;;;;;5099651;28;20321;-78
2023/12/26 04:35:43;;;;;;;0.40;0.40;;;;;;;;;;5096954;28;20261;-78
2023/12/26 04:38:09;;;;;;;0.30;0.30;;;;;;;;;;5096759;28;20028;-79
2023/12/26 04:40:34;;;;;;;0.30;0.30;;;;;;;;;;5096869;28;20256;-79
2023/12/26 04:43:02;;;;;;;0.30;0.30;;;;;;;;;;5097065;28;20481;-79
2023/12/26 04:45:28;;;;;;;0.30;0.30;;;;;;;;;;5095983;28;20255;-79
2023/12/26 04:47:53;;;;;;;0.22;0.22;;;;;;;;;;5095972;28;20020;-78
2023/12/26 04:50:18;;;;;;;0.55;0.28;;;;;;;;;;5095960;28;20489;-78
2023/12/26 04:52:45;;;;;;;0.33;0.33;;;;;;;;;;5096692;28;20016;-79
2023/12/26 04:55:10;;;;;;;0.75;0.20;;;;;;;;;;5095341;28;20631;-79
2023/12/26 04:57:35;;;;;;;0.20;0.20;;;;;;;;;;5095336;28;20024;-79
2023/12/26 05:00:00;;;;;;;0.30;0.20;;;;;;;;;;5095332;28;20479;-80
2023/12/26 05:02:26;;;;;;;0.13;0.13;;;;;;;;;;5093907;28;20852;-79
2023/12/26 05:04:51;;;;;;;0.30;0.30;;;;;;;;;;5095198;28;20268;-78
2023/12/26 05:07:16;;;;;;;1.07;0.30;;;;;;;;;;5096164;28;20257;-79
2023/12/26 05:09:43;;;;;;;0.60;0.20;;;;;;;;;;5095744;28;20778;-79
2023/12/26 05:12:08;;;;;;;0.20;0.20;;;;;;;;;;5095210;28;20314;-79
2023/12/26 05:14:33;;;;;;;3.80;0.98;;;;;;;;;;5094194;28;20032;-78
2023/12/26 05:16:59;;;;;;;0.30;0.30;;;;;;;;;;5095229;28;20031;-77
2023/12/26 05:19:24;;;;;;;0.10;0.10;;;;;;;;;;5094497;28;20260;-77
2023/12/26 05:21:50;;;;;;;0.43;0.30;;;;;;;;;;5095216;28;20815;-78
2023/12/26 05:24:16;;;;;;;0.40;0.25;;;;;;;;;;5095004;28;20028;-79
2023/12/26 05:26:42;;;;;;;0.30;0.30;;;;;;;;;;5095219;28;20027;-78
2023/12/26 05:29:08;;;;;;;0.22;0.22;;;;;;;;;;5095727;28;20032;-79
2023/12/26 05:31:34;;;;;;;0.20;0.20;;;;;;;;;;5095779;28;20475;-78
2023/12/26 05:34:04;;;;;;;0.30;0.30;;;;;;;;;;5095310;28;20028;-78
2023/12/26 05:36:29;;;;;;;0.13;0.13;;;;;;;;;;5095992;28;20391;-79
2023/12/26 05:38:54;;;;;;;0.20;0.20;;;;;;;;;;5096150;28;20364;-79
2023/12/26 05:41:20;;;;;;;0.20;0.20;;;;;;;;;;5095828;28;20051;-77
2023/12/26 05:43:45;;;;;;;0.10;0.10;;;;;;;;;;5099092;28;20054;-79
2023/12/26 05:46:10;;;;;;;0.50;0.20;;;;;;;;;;5098592;28;20597;-79
2023/12/26 05:48:36;;;;;;;0.47;0.25;;;;;;;;;;5098863;28;20024;-79
2023/12/26 05:51:01;;;;;;;0.10;0.10;;;;;;;;;;5099025;28;20107;-79
2023/12/26 05:53:29;;;;;;;0.20;0.20;;;;;;;;;;5089330;28;20028;-79
2023/12/26 05:55:55;;;;;;;0.10;0.10;;;;;;;;;;5079086;28;20449;-79
2023/12/26 05:58:20;;;;;;;0.20;0.20;;;;;;;;;;5079147;28;20077;-79
2023/12/26 06:00:45;;;;;;;0.20;0.17;;;;;;;;;;5078833;28;20031;-79
2023/12/26 06:03:11;;;;;;;0.10;0.10;;;;;;;;;;5078086;28;20265;-79
2023/12/26 06:05:36;;;;;;;0.10;0.10;;;;;;;;;;5078058;28;20256;-79
2023/12/26 06:08:01;;;;;;;0.13;0.13;;;;;;;;;;5079387;28;20249;-80
2023/12/26 06:10:26;;;;;;;0.20;0.10;;;;;;;;;;5078681;28;20293;-79
2023/12/26 06:12:51;;;;;;;0.10;0.10;;;;;;;;;;5079497;28;20314;-78
2023/12/26 06:15:17;;;;;;;0.68;0.20;;;;;;;;;;5078617;28;20265;-78
2023/12/26 06:17:42;;;;;;;0.10;0.10;;;;;;;;;;5075395;28;20476;-78
2023/12/26 06:20:07;;;;;;;0.20;0.20;;;;;;;;;;5077008;28;20632;-79
2023/12/26 06:22:32;;;;;;;0.52;0.20;;;;;;;;;;5090569;28;20277;-79
2023/12/26 06:24:58;;;;;;;0.10;0.10;;;;;;;;;;5088568;28;20391;-79
2023/12/26 06:27:23;;;;;;;0.73;0.10;;;;;;;;;;5083139;28;20106;-78
2023/12/26 06:29:48;;;;;;;0.10;0.10;;;;;;;;;;5074675;28;20265;-79
2023/12/26 06:32:13;;;;;;;1.67;0.20;;;;;;;;;;5074776;28;20334;-78
2023/12/26 06:34:39;;;;;;;0.10;0.10;;;;;;;;;;5075414;28;20138;-79
2023/12/26 06:37:04;;;;;;;0.10;0.10;;;;;;;;;;5076192;28;20440;-78
2023/12/26 06:39:31;;;;;;;0.20;0.17;;;;;;;;;;5077295;28;20040;-78
2023/12/26 06:41:56;;;;;;;0.00;0.00;;;;;;;;;;5078386;28;20273;-78
2023/12/26 06:44:21;;;;;;;0.43;0.13;;;;;;;;;;5078841;28;20032;-78
2023/12/26 06:46:47;;;;;;;0.10;0.10;;;;;;;;;;5078911;28;20483;-77
2023/12/26 06:49:16;;;;;;;0.00;0.00;;;;;;;;;;5077049;28;20782;-78
2023/12/26 06:51:41;;;;;;;0.55;0.20;;;;;;;;;;5075042;28;20020;-77
2023/12/26 06:54:07;;;;;;;0.00;0.00;;;;;;;;;;5075644;28;20040;-78
2023/12/26 06:56:32;;;;;;;0.10;0.10;;;;;;;;;;5076115;28;20052;-78
2023/12/26 06:58:58;;;;;;;0.10;0.10;;;;;;;;;;5076798;28;20032;-78
2023/12/26 07:01:23;;;;;;;0.10;0.10;;;;;;;;;;5076380;28;20029;-78
2023/12/26 07:03:49;;;;;;;0.10;0.10;;;;;;;;;;5075833;28;20032;-78
2023/12/26 07:06:14;;;;;;;0.17;0.10;;;;;;;;;;5077099;28;20052;-77
2023/12/26 07:08:39;;;;;;;0.17;0.17;;;;;;;;;;5077208;28;20060;-78
2023/12/26 07:11:04;;;;;;;0.10;0.10;;;;;;;;;;5077292;28;20261;-76
2023/12/26 07:13:30;;;;;;;0.10;0.10;;;;;;;;;;5076624;28;20276;-77
2023/12/26 07:15:55;;;;;;;0.40;0.10;;;;;;;;;;5075981;28;20501;-78
2023/12/26 07:18:20;;;;;;;0.00;0.00;;;;;;;;;;5076808;28;20028;-79
2023/12/26 07:20:45;;;;;;;0.43;0.20;;;;;;;;;;5076091;28;20302;-79
2023/12/26 07:23:11;;;;;;;0.10;0.10;;;;;;;;;;5076461;28;20024;-79
2023/12/26 07:25:37;;;;;;;0.20;0.20;;;;;;;;;;5077074;28;20391;-77
2023/12/26 07:28:03;;;;;;;0.10;0.00;;;;;;;;;;5076235;28;20025;-78
2023/12/26 07:30:28;;;;;;;0.10;0.10;;;;;;;;;;5076186;28;20083;-77
2023/12/26 07:32:54;;;;;;;0.52;0.10;;;;;;;;;;5076891;28;20016;-79
2023/12/26 07:35:19;;;;;;;0.25;0.20;;;;;;;;;;5080944;28;20031;-79
2023/12/26 07:37:44;;;;;;;0.03;0.03;;;;;;;;;;5082244;28;20426;-79
2023/12/26 07:40:10;;;;;;;0.20;0.20;;;;;;;;;;5081621;28;20264;-79
2023/12/26 07:42:35;;;;;;;0.15;0.10;;;;;;;;;;5082723;28;20285;-80
2023/12/26 07:45:00;;;;;;;0.10;0.10;;;;;;;;;;5082670;28;20080;-79
2023/12/26 07:47:26;;;;;;;0.10;0.10;;;;;;;;;;5082539;28;20315;-80
2023/12/26 07:49:51;;;;;;;0.10;0.10;;;;;;;;;;5081446;28;20283;-78
2023/12/26 07:52:17;;;;;;;0.10;0.10;;;;;;;;;;5081092;28;20245;-79
2023/12/26 07:54:42;;;;;;;0.40;0.20;;;;;;;;;;5083857;28;20029;-79
2023/12/26 07:57:07;;;;;;;0.17;0.17;;;;;;;;;;5079255;28;20499;-79
2023/12/26 07:59:32;;;;;;;0.30;0.20;;;;;;;;;;5078463;28;20029;-79
2023/12/26 08:01:58;;;;;;;0.17;0.17;;;;;;;;;;5079410;28;20021;-80
2023/12/26 08:04:23;;;;;;;0.20;0.20;;;;;;;;;;5076826;28;20084;-78
2023/12/26 08:06:48;;;;;;;0.30;0.30;;;;;;;;;;5075765;28;20095;-78
2023/12/26 08:09:13;;;;;;;0.70;0.30;;;;;;;;;;5075283;28;20403;-79
2023/12/26 08:11:39;;;;;;;0.13;0.13;;;;;;;;;;5075761;28;20016;-79
2023/12/26 08:14:04;;;;;;;0.10;0.10;;;;;;;;;;5075857;28;20063;-78
2023/12/26 08:16:30;;;;;;;0.63;0.10;;;;;;;;;;5073921;28;20550;-78
2023/12/26 08:18:57;;;;;;;0.30;0.30;;;;;;;;;;5075950;28;20032;-78
2023/12/26 08:21:22;;;;;;;0.17;0.17;;;;;;;;;;5074402;28;20025;-78
2023/12/26 08:23:48;;;;;;;0.35;0.35;;;;;;;;;;5075489;28;20488;-78
2023/12/26 08:26:13;;;;;;;0.90;0.60;;;;;;;;;;5075360;28;20024;-77
2023/12/26 08:28:39;;;;;;;0.98;0.77;;;;;;;;;;5075974;28;20502;-78
2023/12/26 08:31:04;;;;;;;1.45;0.50;;;;;;;;;;5076113;28;20040;-78
2023/12/26 08:33:31;;;;;;;1.97;1.00;;;;;;;;;;5075980;28;20121;-78
2023/12/26 08:35:56;;;;;;;4.90;1.45;;;;;;;;;;5075994;28;20296;-79
2023/12/26 08:38:21;;;;;;;2.20;1.23;;;;;;;;;;5073965;28;20037;-79
2023/12/26 08:40:47;;;;;;;1.52;0.85;;;;;;;;;;5075670;28;20040;-78
2023/12/26 08:43:12;;;;;;;1.15;0.80;;;;;;;;;;5076148;28;20021;-78
2023/12/26 08:45:38;;;;;;;1.98;1.20;;;;;;;;;;5074426;28;20057;-77
2023/12/26 08:48:04;;;;;;;1.23;0.70;;;;;;;;;;5074331;28;20025;-78
2023/12/26 08:50:29;;;;;;;0.25;0.25;;;;;;;;;;5075388;28;20028;-78
2023/12/26 08:52:54;;;;;;;0.50;0.50;;;;;;;;;;5077953;28;20032;-79
2023/12/26 08:55:20;;;;;;;1.80;1.10;;;;;;;;;;5077739;28;20033;-79
2023/12/26 08:57:45;;;;;;;2.53;1.10;;;;;;;;;;5076148;28;20822;-80
2023/12/26 09:00:13;;;;;;;1.77;1.10;;;;;;;;;;5079491;28;20054;-80
2023/12/26 09:02:39;;;;;;;1.42;1.10;;;;;;;;;;5081314;28;20277;-79
2023/12/26 09:05:04;;;;;;;1.08;0.80;;;;;;;;;;5081394;28;20115;-80
2023/12/26 09:07:29;;;;;;;0.88;0.82;;;;;;;;;;5081493;28;20395;-79
2023/12/26 09:09:55;;;;;;;1.23;0.40;;;;;;;;;;5080584;28;20084;-80
2023/12/26 09:12:21;;;;;;;0.65;0.50;;;;;;;;;;5078457;28;20414;-80
2023/12/26 09:14:46;;;;;;;0.30;0.30;;;;;;;;;;5076037;28;20550;-79
2023/12/26 09:17:13;;;;;;;0.30;0.30;;;;;;;;;;5077169;28;20071;-80
2023/12/26 09:19:38;;;;;;;0.20;0.20;;;;;;;;;;5079411;28;20487;-79
2023/12/26 09:22:03;;;;;;;0.17;0.17;;;;;;;;;;5081021;28;20029;-79
2023/12/26 09:24:29;;;;;;;0.20;0.20;;;;;;;;;;5079499;28;20051;-78
2023/12/26 09:26:54;;;;;;;0.20;0.20;;;;;;;;;;5076189;28;20264;-78
2023/12/26 09:29:19;;;;;;;0.30;0.10;;;;;;;;;;5075396;28;20288;-78
2023/12/26 09:31:44;;;;;;;1.57;0.50;;;;;;;;;;5074642;28;20261;-78
2023/12/26 09:34:10;;;;;;;0.53;0.20;;;;;;;;;;5074502;28;20283;-77
2023/12/26 09:36:35;;;;;;;0.30;0.30;;;;;;;;;;5073916;28;20328;-79
2023/12/26 09:39:01;;;;;;;0.40;0.35;;;;;;;;;;5074428;28;20029;-80
2023/12/26 09:41:26;;;;;;;0.20;0.20;;;;;;;;;;5072493;28;20077;-79
2023/12/26 09:43:52;;;;;;;0.47;0.47;;;;;;;;;;5074761;28;20253;-78
2023/12/26 09:46:18;;;;;;;0.95;0.40;;;;;;;;;;5073053;28;20024;-78
2023/12/26 09:48:43;;;;;;;36.47;7.68;;;;;;;;;;5074648;28;20046;-77
2023/12/26 09:51:20;;;;;;;1.38;0.75;;;;;;;;;;5074559;28;20020;-79
2023/12/26 09:53:46;;;;;;;0.85;0.43;;;;;;;;;;5090683;28;20032;-80
2023/12/26 09:56:12;;;;;;;0.57;0.40;;;;;;;;;;5089332;28;20024;-79
2023/12/26 09:58:43;;;;;;;0.43;0.30;;;;;;;;;;5086510;28;20023;-79
2023/12/26 10:01:11;;;;;;;1.27;0.30;;;;;;;;;;5079241;28;20020;-79
2023/12/26 10:03:37;;;;;;;1.17;0.40;;;;;;;;;;5081111;28;20031;-80
2023/12/26 10:06:03;;;;;;;0.93;0.40;;;;;;;;;;5078987;28;20369;-79
2023/12/26 10:08:28;;;;;;;0.40;0.40;;;;;;;;;;5079185;28;20036;-80
2023/12/26 10:10:54;;;;;;;0.93;0.35;;;;;;;;;;5075202;28;20021;-79
2023/12/26 10:13:19;;;;;;;0.68;0.47;;;;;;;;;;5073692;28;20476;-79
2023/12/26 10:15:45;;;;;;;0.40;0.33;;;;;;;;;;5072055;28;20032;-79
2023/12/26 10:18:10;;;;;;;0.30;0.30;;;;;;;;;;5073495;28;20269;-77
2023/12/26 10:20:36;;;;;;;0.38;0.38;;;;;;;;;;5074170;28;20287;-79
2023/12/26 10:23:04;;;;;;;1.00;0.30;;;;;;;;;;5073582;28;20475;-78
2023/12/26 10:25:29;;;;;;;0.68;0.43;;;;;;;;;;5070997;28;20486;-78
2023/12/26 10:27:54;;;;;;;0.30;0.30;;;;;;;;;;5074760;28;20035;-78
2023/12/26 10:30:20;;;;;;;0.57;0.43;;;;;;;;;;5078235;28;20479;-78
2023/12/26 10:32:45;;;;;;;0.40;0.40;;;;;;;;;;5079234;28;20052;-80
2023/12/26 10:35:15;;;;;;;1.58;0.30;;;;;;;;;;5082389;28;20032;-80
2023/12/26 10:37:40;;;;;;;0.57;0.38;;;;;;;;;;5083968;28;20047;-79
2023/12/26 10:40:06;;;;;;;0.52;0.45;;;;;;;;;;5081814;28;20036;-79
2023/12/26 10:42:31;;;;;;;0.20;0.20;;;;;;;;;;5082785;28;20024;-79
2023/12/26 10:45:01;;;;;;;0.30;0.30;;;;;;;;;;5081577;28;20074;-80
2023/12/26 10:47:30;;;;;;;0.25;0.25;;;;;;;;;;5081808;28;20077;-78
2023/12/26 10:49:59;;;;;;;0.20;0.20;;;;;;;;;;5081340;28;20028;-79
2023/12/26 10:52:26;;;;;;;0.20;0.20;;;;;;;;;;5082485;28;20391;-79
2023/12/26 10:54:54;;;;;;;0.57;0.28;;;;;;;;;;5083697;28;20028;-79
2023/12/26 10:57:20;;;;;;;1.85;0.30;;;;;;;;;;5079494;28;20546;-78
2023/12/26 10:59:46;;;;;;;0.30;0.30;;;;;;;;;;5076540;28;20038;-79
2023/12/26 11:02:11;;;;;;;0.35;0.30;;;;;;;;;;5077028;28;20024;-77
2023/12/26 11:04:37;;;;;;;0.85;0.38;;;;;;;;;;5075077;28;20020;-77
2023/12/26 11:07:02;;;;;;;0.25;0.25;;;;;;;;;;5075069;28;20078;-78
2023/12/26 11:09:28;;;;;;;1.73;0.45;;;;;;;;;;5074058;28;20032;-77
2023/12/26 11:11:53;;;;;;;0.65;0.28;;;;;;;;;;5075016;28;20111;-78
2023/12/26 11:14:18;;;;;;;0.65;0.32;;;;;;;;;;5073530;28;20025;-78
2023/12/26 11:16:44;;;;;;;0.98;0.20;;;;;;;;;;5074806;28;20073;-79
2023/12/26 11:19:09;;;;;;;0.30;0.30;;;;;;;;;;5075093;28;20466;-78
2023/12/26 11:21:36;;;;;;;0.65;0.40;;;;;;;;;;5074985;28;20033;-79
2023/12/26 11:24:02;;;;;;;0.50;0.50;;;;;;;;;;5074315;28;20021;-77
2023/12/26 11:26:30;;;;;;;1.73;0.50;;;;;;;;;;5073075;28;20032;-77
2023/12/26 11:28:55;;;;;;;1.67;0.50;;;;;;;;;;5074876;28;20511;-79
2023/12/26 11:31:21;;;;;;;3.60;1.38;;;;;;;;;;5075449;28;20074;-78
2023/12/26 11:33:47;;;;;;;1.08;0.63;;;;;;;;;;5075639;28;20025;-78
2023/12/26 11:36:12;;;;;;;1.83;0.93;;;;;;;;;;5074827;28;20027;-77
2023/12/26 11:38:37;;;;;;;0.60;0.30;;;;;;;;;;5075444;28;20035;-78
2023/12/26 11:41:05;;;;;;;0.50;0.40;;;;;;;;;;5079441;28;20293;-79
2023/12/26 11:43:30;;;;;;;1.13;0.50;;;;;;;;;;5079293;28;20068;-79
2023/12/26 11:45:55;;;;;;;0.63;0.33;;;;;;;;;;5079286;28;20027;-79
2023/12/26 11:48:21;;;;;;;1.33;0.50;;;;;;;;;;5081019;28;20264;-80
2023/12/26 11:50:46;;;;;;;0.60;0.50;;;;;;;;;;5081869;28;20034;-79
2023/12/26 11:53:12;;;;;;;0.50;0.50;;;;;;;;;;5082439;28;20046;-79
2023/12/26 11:55:37;;;;;;;2.55;0.38;;;;;;;;;;5080792;28;20390;-79
2023/12/26 11:58:03;;;;;;;0.55;0.40;;;;;;;;;;5081272;28;20048;-79
2023/12/26 12:00:28;;;;;;;0.90;0.60;;;;;;;;;;5080395;28;20042;-79
2023/12/26 12:02:53;;;;;;;0.35;0.30;;;;;;;;;;5078140;28;20059;-78
2023/12/26 12:05:18;;;;;;;0.55;0.30;;;;;;;;;;5081335;28;20426;-79
2023/12/26 12:08:12;;;;;;;0.27;0.23;;;;;;;;;;5080635;28;20028;-79
2023/12/26 12:11:07;;;;;;;0.85;0.50;;;;;;;;;;5080488;28;20272;-78
2023/12/26 12:13:32;;;;;;;;;;;;;;;;;;5081032;28;20078;-80
2023/12/26 12:15:57;;;;;;;1.60;0.40;;;;;;;;;;5077747;28;19908;-78
2023/12/26 12:18:23;;;;;;;0.90;0.57;;;;;;;;;;5076088;28;20395;-77
2023/12/26 12:20:48;;;;;;;1.37;0.50;;;;;;;;;;5078153;28;20035;-79
2023/12/26 12:23:14;;;;;;;2.45;0.60;;;;;;;;;;5082089;28;20346;-79
2023/12/26 12:25:39;;;;;;;2.33;0.70;;;;;;;;;;5082110;28;20032;-79
2023/12/26 12:28:09;;;;;;;1.77;0.50;;;;;;;;;;5082383;28;20051;-79
2023/12/26 12:30:34;;;;;;;1.05;0.60;;;;;;;;;;5082226;28;20024;-78
2023/12/26 12:33:18;;;;;;;3.45;0.70;;;;;;;;;;5082010;28;20063;-78
2023/12/26 12:35:46;;;;;;;;;;;;;;;;;;5080398;28;20031;-79
2023/12/26 12:38:12;;;;;;;1.20;0.50;;;;;;;;;;5080375;28;19918;-79
2023/12/26 12:40:37;;;;;;;0.60;0.50;;;;;;;;;;5079654;28;20494;-78
2023/12/26 12:43:03;;;;;;;1.52;0.60;;;;;;;;;;5077400;28;20031;-79
2023/12/26 12:45:28;;;;;;;0.40;0.40;;;;;;;;;;5076320;28;20021;-79
2023/12/26 12:47:53;;;;;;;0.70;0.50;;;;;;;;;;5079685;28;20024;-80
2023/12/26 12:50:19;;;;;;;0.77;0.60;;;;;;;;;;5075453;28;20498;-78
2023/12/26 12:52:45;;;;;;;1.30;0.60;;;;;;;;;;5079428;28;20051;-80
2023/12/26 12:55:10;;;;;;;2.58;0.65;;;;;;;;;;5078981;28;20468;-78
2023/12/26 12:57:35;;;;;;;0.90;0.63;;;;;;;;;;5075103;28;20476;-79
2023/12/26 13:00:00;;;;;;;1.40;0.93;;;;;;;;;;5076165;28;20103;-78
2023/12/26 13:02:26;;;;;;;1.73;0.68;;;;;;;;;;5075576;28;20312;-79
2023/12/26 13:04:51;;;;;;;1.58;0.50;;;;;;;;;;5074618;28;20035;-79
2023/12/26 13:07:16;;;;;;;0.47;0.47;;;;;;;;;;5076056;28;20032;-79
2023/12/26 13:09:42;;;;;;;1.98;0.63;;;;;;;;;;5076987;28;20028;-79
2023/12/26 13:12:07;;;;;;;1.13;0.60;;;;;;;;;;5079617;28;20029;-79
2023/12/26 13:14:34;;;;;;;1.63;0.30;;;;;;;;;;5081804;28;20020;-78
2023/12/26 13:17:00;;;;;;;3.20;0.50;;;;;;;;;;5077500;28;20558;-78
2023/12/26 13:19:26;;;;;;;1.35;0.60;;;;;;;;;;5075397;28;20063;-78
2023/12/26 13:21:51;;;;;;;2.00;0.50;;;;;;;;;;5074472;28;20037;-78
2023/12/26 13:24:20;;;;;;;1.47;0.60;;;;;;;;;;5075629;28;20082;-79
2023/12/26 13:26:45;;;;;;;0.60;0.50;;;;;;;;;;5088584;28;20740;-80
2023/12/26 13:29:21;;;;;;;1.30;0.60;;;;;;;;;;5088239;28;20104;-79
2023/12/26 13:31:46;;;;;;;1.58;0.60;;;;;;;;;;5084087;28;20774;-79
2023/12/26 13:34:12;;;;;;;0.65;0.50;;;;;;;;;;5081036;28;20029;-79
2023/12/26 13:36:37;;;;;;;0.63;0.60;;;;;;;;;;5080891;28;20494;-80
2023/12/26 13:39:02;;;;;;;0.70;0.50;;;;;;;;;;5080225;28;20033;-78
2023/12/26 13:41:27;;;;;;;0.65;0.57;;;;;;;;;;5074317;28;20051;-79
2023/12/26 13:43:53;;;;;;;0.70;0.70;;;;;;;;;;5074685;28;20063;-78
2023/12/26 13:46:18;;;;;;;0.57;0.40;;;;;;;;;;5073572;28;20557;-78
2023/12/26 13:48:43;;;;;;;1.27;0.50;;;;;;;;;;5076097;28;20813;-78
2023/12/26 13:51:08;;;;;;;1.17;0.60;;;;;;;;;;5073506;28;20760;-79
2023/12/26 13:53:33;;;;;;;3.03;0.67;;;;;;;;;;5075300;28;20763;-78
2023/12/26 13:55:59;;;;;;;0.60;0.60;;;;;;;;;;5073739;28;20270;-77
2023/12/26 13:58:24;;;;;;;2.28;0.60;;;;;;;;;;5075220;28;20249;-77
2023/12/26 14:00:49;;;;;;;1.90;0.70;;;;;;;;;;5075062;28;20496;-78
2023/12/26 14:03:14;;;;;;;0.70;0.60;;;;;;;;;;5076855;28;20293;-78
2023/12/26 14:05:40;;;;;;;0.47;0.47;;;;;;;;;;5078043;28;20269;-78
2023/12/26 14:08:05;;;;;;;2.03;0.50;;;;;;;;;;5078481;28;20279;-79
2023/12/26 14:10:30;;;;;;;1.50;0.70;;;;;;;;;;5078762;28;20268;-78
2023/12/26 14:12:55;;;;;;;2.17;0.87;;;;;;;;;;5077922;28;20823;-80
2023/12/26 14:15:20;;;;;;;0.80;0.60;;;;;;;;;;5077954;28;20277;-78
2023/12/26 14:17:46;;;;;;;0.60;0.60;;;;;;;;;;5078451;28;20032;-80
2023/12/26 14:20:11;;;;;;;1.15;0.60;;;;;;;;;;5077974;28;20269;-78
2023/12/26 14:22:36;;;;;;;1.50;0.70;;;;;;;;;;5077193;28;20083;-76
2023/12/26 14:25:01;;;;;;;1.33;0.60;;;;;;;;;;5078157;28;20040;-78
2023/12/26 14:27:27;;;;;;;2.72;0.80;;;;;;;;;;5077843;28;20241;-78
2023/12/26 14:29:52;;;;;;;5.30;0.70;;;;;;;;;;5076819;28;20028;-79
2023/12/26 14:32:17;;;;;;;5.65;0.85;;;;;;;;;;5079117;28;20333;-79
2023/12/26 14:34:42;;;;;;;15.03;3.43;;;;;;;;;;5077213;28;20054;-78